Time;durP1;ratioP1;P1;durP2;ratioP2;P2;SDS_P1;SDS_P2;PMS_P1;PMS_P2;Temp;Humidity;BMP_temperature;BMP_pressure;BME280_temperature;BME280_humidity;BME280_pressure;Samples;Min_cycle;Max_cycle;Signal;HPM_P1;HPM_P2
2021/07/14 00:01:18;;;;;;;9.15;7.45;;;23.80;66.10;;;;;;4980313;28;20026;-83
2021/07/14 00:03:43;;;;;;;8.65;7.43;;;23.80;66.20;;;;;;4980265;28;20038;-82
2021/07/14 00:06:09;;;;;;;9.80;7.05;;;23.70;66.20;;;;;;4997878;28;20114;-83
2021/07/14 00:08:35;;;;;;;8.98;6.97;;;23.80;66.30;;;;;;4996777;28;20034;-83
2021/07/14 00:11:01;;;;;;;9.43;7.78;;;23.70;66.20;;;;;;4996598;28;20058;-82
2021/07/14 00:13:46;;;;;;;11.52;7.57;;;23.70;66.30;;;;;;4995895;28;20046;-83
2021/07/14 00:24:26;;;;;;;8.85;7.05;;;23.70;66.30;;;;;;4996470;28;20046;-80
2021/07/14 00:26:52;;;;;;;9.48;7.55;;;23.70;66.30;;;;;;4995680;28;20109;-81
2021/07/14 00:29:18;;;;;;;8.65;7.53;;;23.60;66.30;;;;;;4979272;28;20062;-82
2021/07/14 00:31:43;;;;;;;9.70;7.43;;;23.70;66.40;;;;;;4995524;28;20054;-82
2021/07/14 00:34:09;;;;;;;9.90;7.50;;;23.60;66.40;;;;;;4995805;28;20487;-81
2021/07/14 00:36:35;;;;;;;8.68;6.93;;;23.60;66.40;;;;;;4962994;28;20030;-82
2021/07/14 00:39:02;;;;;;;8.63;7.13;;;23.60;66.40;;;;;;4997062;28;20463;-81
2021/07/14 00:41:28;;;;;;;9.68;7.15;;;23.60;66.50;;;;;;4979090;28;20030;-82
2021/07/14 00:43:54;;;;;;;8.82;6.85;;;23.60;66.40;;;;;;4979082;28;20053;-80
2021/07/14 00:46:25;;;;;;;8.93;6.88;;;23.60;66.40;;;;;;4978819;28;20030;-82
2021/07/14 00:48:55;;;;;;;9.27;7.63;;;23.60;66.50;;;;;;4979176;28;20030;-82
2021/07/14 00:51:21;;;;;;;9.25;7.07;;;23.60;66.50;;;;;;4994709;28;20486;-81
2021/07/14 00:53:47;;;;;;;8.60;6.63;;;23.60;66.50;;;;;;4978382;28;20035;-82
2021/07/14 00:56:13;;;;;;;9.20;7.53;;;23.60;66.50;;;;;;4994831;28;20022;-82
2021/07/14 00:58:39;;;;;;;9.10;7.28;;;23.60;66.50;;;;;;4996130;28;20161;-82
2021/07/14 01:01:05;;;;;;;8.63;7.00;;;23.50;66.40;;;;;;4994940;28;20057;-81
2021/07/14 01:03:36;;;;;;;8.85;7.03;;;23.50;66.50;;;;;;4994994;28;20447;-82
2021/07/14 01:06:05;;;;;;;7.90;6.60;;;23.50;66.50;;;;;;4996143;28;20121;-81
2021/07/14 01:08:30;;;;;;;8.32;6.57;;;23.50;66.50;;;;;;4979181;28;20037;-82
2021/07/14 01:11:03;;;;;;;8.25;6.70;;;23.50;66.40;;;;;;4979122;28;20136;-82
2021/07/14 01:14:05;;;;;;;8.48;6.43;;;23.50;66.50;;;;;;4963177;28;20042;-81
2021/07/14 01:16:43;;;;;;;7.90;6.57;;;23.50;66.60;;;;;;4977944;28;20137;-82
2021/07/14 01:19:35;;;;;;;7.80;6.50;;;23.50;66.50;;;;;;4977676;28;20035;-82
2021/07/14 01:22:14;;;;;;;7.53;6.03;;;23.50;66.50;;;;;;4971849;28;20045;-82
2021/07/14 01:25:01;;;;;;;8.45;6.90;;;23.50;66.50;;;;;;4993715;28;20054;-82
2021/07/14 01:27:34;;;;;;;7.50;6.10;;;23.40;66.40;;;;;;4994676;28;20047;-82
2021/07/14 01:30:04;;;;;;;7.82;6.18;;;23.50;66.50;;;;;;4977318;28;20030;-83
2021/07/14 01:32:33;;;;;;;7.60;5.97;;;23.40;66.40;;;;;;4993428;28;20075;-81
2021/07/14 01:35:11;;;;;;;8.05;6.43;;;23.40;66.50;;;;;;4993323;28;20130;-81
2021/07/14 01:37:39;;;;;;;7.45;6.00;;;23.40;66.60;;;;;;4993459;28;20151;-82
2021/07/14 01:40:07;;;;;;;8.55;6.28;;;23.40;66.50;;;;;;4976918;28;20022;-82
2021/07/14 01:42:33;;;;;;;7.72;6.60;;;23.40;66.50;;;;;;4976784;28;20062;-81
2021/07/14 01:45:01;;;;;;;9.00;6.70;;;23.40;66.50;;;;;;4993093;28;20022;-82
2021/07/14 01:47:32;;;;;;;8.65;6.22;;;23.40;66.50;;;;;;4993205;28;20457;-82
2021/07/14 01:49:58;;;;;;;7.32;5.95;;;23.40;66.60;;;;;;4994386;28;20386;-82
2021/07/14 01:52:26;;;;;;;7.72;6.00;;;23.40;66.50;;;;;;4993374;28;20030;-82
2021/07/14 01:54:55;;;;;;;7.32;6.28;;;23.40;66.50;;;;;;4977133;28;20391;-82
2021/07/14 01:57:22;;;;;;;7.30;6.47;;;23.40;66.50;;;;;;4994154;28;20485;-82
2021/07/14 01:59:50;;;;;;;7.15;6.35;;;23.40;66.50;;;;;;4961734;28;20030;-82
2021/07/14 02:02:19;;;;;;;8.85;6.35;;;23.40;66.50;;;;;;4977090;28;20033;-82
2021/07/14 02:04:46;;;;;;;7.10;6.10;;;23.40;66.50;;;;;;4993337;28;20121;-82
2021/07/14 02:07:14;;;;;;;7.85;6.53;;;23.40;66.50;;;;;;4960930;28;20161;-81
2021/07/14 02:09:43;;;;;;;7.50;5.95;;;23.40;66.50;;;;;;4955608;28;1111316;-83
2021/07/14 02:12:17;;;;;;;7.68;6.75;;;23.40;66.50;;;;;;4993741;28;20030;-81
2021/07/14 02:14:51;;;;;;;7.82;6.10;;;23.30;66.50;;;;;;4978085;28;20062;-82
2021/07/14 02:17:20;;;;;;;7.25;6.13;;;23.30;66.50;;;;;;4977357;28;20038;-82
2021/07/14 02:20:06;;;;;;;8.05;5.82;;;23.30;66.50;;;;;;4994864;28;20026;-82
2021/07/14 02:22:32;;;;;;;7.20;6.20;;;23.30;66.70;;;;;;4961857;28;20027;-82
2021/07/14 02:24:57;;;;;;;7.45;6.43;;;23.30;66.50;;;;;;4977417;28;20030;-82
2021/07/14 02:27:23;;;;;;;7.30;5.82;;;23.30;66.50;;;;;;4977899;28;20041;-82
2021/07/14 02:29:49;;;;;;;6.53;5.45;;;23.30;66.50;;;;;;4977127;28;20030;-81
2021/07/14 02:32:18;;;;;;;7.15;6.10;;;23.30;66.50;;;;;;4976961;28;20034;-81
2021/07/14 02:34:46;;;;;;;7.88;5.97;;;23.30;66.60;;;;;;4976484;28;20121;-81
2021/07/14 02:37:15;;;;;;;7.47;5.82;;;23.20;66.50;;;;;;4976897;28;20027;-81
2021/07/14 02:39:44;;;;;;;7.13;5.40;;;23.30;66.60;;;;;;4976913;28;20077;-82
2021/07/14 02:42:17;;;;;;;6.80;5.53;;;23.20;66.60;;;;;;4994289;28;20126;-82
2021/07/14 02:44:45;;;;;;;8.05;5.85;;;23.30;66.60;;;;;;4994824;28;20030;-82
2021/07/14 02:47:12;;;;;;;8.10;6.18;;;23.20;66.50;;;;;;4976853;28;20034;-82
2021/07/14 02:49:39;;;;;;;7.18;5.55;;;23.20;66.60;;;;;;4960749;28;20483;-82
2021/07/14 02:52:13;;;;;;;7.55;6.18;;;23.20;66.60;;;;;;4992976;28;20035;-82
2021/07/14 02:54:41;;;;;;;7.05;5.28;;;23.20;66.70;;;;;;4993776;28;20486;-81
2021/07/14 02:57:11;;;;;;;7.50;6.25;;;23.20;66.60;;;;;;4976957;28;20018;-81
2021/07/14 02:59:39;;;;;;;8.50;5.82;;;23.20;66.60;;;;;;4976799;28;20034;-81
2021/07/14 03:02:06;;;;;;;6.78;5.00;;;23.20;67.30;;;;;;4976721;28;20386;-81
2021/07/14 03:04:36;;;;;;;7.55;6.18;;;23.20;66.70;;;;;;4976840;28;20045;-81
2021/07/14 03:07:07;;;;;;;8.07;6.55;;;23.20;66.70;;;;;;4993040;28;20102;-81
2021/07/14 03:09:37;;;;;;;7.45;5.82;;;23.20;66.70;;;;;;4993873;28;20054;-81
2021/07/14 03:12:11;;;;;;;7.18;6.00;;;23.20;66.70;;;;;;4976951;28;20030;-82
2021/07/14 03:14:43;;;;;;;7.90;5.78;;;23.20;66.70;;;;;;4976704;28;20038;-81
2021/07/14 03:17:11;;;;;;;7.43;5.85;;;23.20;66.70;;;;;;4993018;28;20080;-81
2021/07/14 03:19:38;;;;;;;6.97;5.75;;;23.20;66.80;;;;;;4976493;28;20033;-82
2021/07/14 03:22:05;;;;;;;7.88;5.97;;;23.20;66.70;;;;;;4994036;28;20033;-81
2021/07/14 03:24:32;;;;;;;7.93;6.15;;;23.10;66.70;;;;;;4976775;28;20109;-81
2021/07/14 03:26:59;;;;;;;8.30;6.05;;;23.20;66.80;;;;;;4992736;28;20031;-82
2021/07/14 03:29:26;;;;;;;8.43;6.38;;;23.20;66.80;;;;;;4960761;28;20383;-82
2021/07/14 03:31:52;;;;;;;7.97;6.25;;;23.10;66.80;;;;;;4993968;28;20089;-82
2021/07/14 03:34:18;;;;;;;7.85;6.05;;;23.10;66.80;;;;;;4977033;28;20035;-81
2021/07/14 03:36:45;;;;;;;7.22;6.05;;;23.10;66.80;;;;;;4976266;28;20022;-82
2021/07/14 03:39:11;;;;;;;8.88;6.43;;;23.10;66.90;;;;;;4994008;28;20039;-81
2021/07/14 03:41:39;;;;;;;8.35;6.32;;;23.10;66.90;;;;;;4992436;28;20035;-81
2021/07/14 03:44:06;;;;;;;7.78;5.85;;;23.10;66.90;;;;;;4976660;28;20038;-81
2021/07/14 03:46:32;;;;;;;8.43;6.60;;;23.10;66.90;;;;;;4960690;28;20062;-81
2021/07/14 03:48:58;;;;;;;8.85;6.13;;;23.10;66.90;;;;;;4980308;28;20063;-81
2021/07/14 03:51:25;;;;;;;8.48;6.15;;;23.10;66.90;;;;;;4979866;28;20499;-82
2021/07/14 03:53:51;;;;;;;8.65;6.60;;;23.10;67.00;;;;;;4979835;28;20049;-82
2021/07/14 03:56:21;;;;;;;8.90;6.75;;;23.10;67.00;;;;;;4980119;28;20034;-82
2021/07/14 03:58:48;;;;;;;7.82;6.63;;;23.10;67.70;;;;;;4980225;28;20026;-82
2021/07/14 04:01:17;;;;;;;9.23;7.15;;;23.10;67.10;;;;;;4996502;28;20027;-82
2021/07/14 04:03:43;;;;;;;9.38;6.85;;;23.10;67.20;;;;;;4995893;28;20034;-81
2021/07/14 04:06:10;;;;;;;8.93;6.82;;;23.10;67.20;;;;;;4979518;28;20023;-81
2021/07/14 04:08:44;;;;;;;8.13;6.18;;;23.00;67.20;;;;;;4963483;28;20567;-82
2021/07/14 04:11:13;;;;;;;8.45;6.75;;;23.00;67.20;;;;;;4979244;28;20058;-82
2021/07/14 04:13:40;;;;;;;7.95;6.50;;;23.10;67.30;;;;;;4980093;28;20049;-82
2021/07/14 04:16:06;;;;;;;8.98;7.47;;;23.10;67.20;;;;;;4979500;28;20030;-82
2021/07/14 04:18:31;;;;;;;8.45;6.78;;;23.00;67.20;;;;;;4979533;28;20049;-82
2021/07/14 04:20:58;;;;;;;8.73;6.85;;;23.00;67.20;;;;;;4963464;28;20394;-82
2021/07/14 04:23:24;;;;;;;8.52;7.10;;;23.00;67.30;;;;;;4996769;28;20038;-82
2021/07/14 04:25:49;;;;;;;8.55;6.72;;;23.00;67.30;;;;;;4979514;28;20364;-82
2021/07/14 04:28:15;;;;;;;9.70;7.20;;;23.00;67.30;;;;;;4979721;28;20033;-79
2021/07/14 04:30:41;;;;;;;8.70;6.95;;;23.00;67.30;;;;;;4979833;28;20093;-82
2021/07/14 04:33:07;;;;;;;8.32;6.80;;;23.00;67.30;;;;;;4979174;28;20406;-80
2021/07/14 04:35:33;;;;;;;9.68;7.03;;;23.00;67.30;;;;;;4963083;28;20027;-80
2021/07/14 04:38:00;;;;;;;8.77;6.63;;;23.00;67.30;;;;;;4979000;28;20034;-82
2021/07/14 04:40:25;;;;;;;7.70;6.35;;;23.00;67.40;;;;;;4963857;28;20041;-82
2021/07/14 04:42:52;;;;;;;9.15;6.28;;;23.00;67.40;;;;;;4979895;28;20026;-83
2021/07/14 04:45:18;;;;;;;8.43;6.47;;;23.00;67.40;;;;;;4978921;28;20030;-84
2021/07/14 04:47:45;;;;;;;8.43;6.32;;;23.00;67.50;;;;;;4996834;28;20038;-85
2021/07/14 04:50:11;;;;;;;8.35;6.43;;;23.00;67.50;;;;;;4980399;28;20035;-83
2021/07/14 04:52:37;;;;;;;8.15;6.35;;;23.00;67.50;;;;;;4980117;28;20034;-85
2021/07/14 04:55:02;;;;;;;7.97;5.97;;;22.90;67.50;;;;;;4963525;28;20455;-84
2021/07/14 04:57:28;;;;;;;8.75;6.43;;;22.90;67.50;;;;;;4978998;28;20034;-85
2021/07/14 04:59:54;;;;;;;8.93;6.22;;;22.90;67.50;;;;;;4962574;28;20049;-85
2021/07/14 05:02:20;;;;;;;7.20;5.72;;;22.90;67.50;;;;;;4962943;28;20034;-81
2021/07/14 05:04:45;;;;;;;7.00;5.65;;;22.90;67.50;;;;;;4978420;28;20030;-80
2021/07/14 05:07:11;;;;;;;7.20;5.25;;;22.90;67.60;;;;;;4978521;28;20091;-80
2021/07/14 05:09:37;;;;;;;7.05;5.68;;;22.90;67.60;;;;;;4962057;28;20034;-79
2021/07/14 05:12:04;;;;;;;6.93;5.05;;;22.90;67.60;;;;;;4995151;28;20034;-81
2021/07/14 05:14:29;;;;;;;6.90;5.50;;;22.90;67.70;;;;;;4962369;28;20117;-81
2021/07/14 05:16:55;;;;;;;7.28;5.70;;;22.90;67.70;;;;;;4994861;28;20113;-79
2021/07/14 05:19:21;;;;;;;6.82;5.05;;;22.90;67.70;;;;;;4978785;28;20031;-79
2021/07/14 05:21:47;;;;;;;8.13;5.90;;;22.90;67.70;;;;;;4994233;28;20049;-80
2021/07/14 05:24:12;;;;;;;7.60;5.75;;;22.90;67.70;;;;;;4994558;28;20026;-79
2021/07/14 05:26:39;;;;;;;8.50;5.57;;;22.90;67.70;;;;;;4995119;28;20034;-82
2021/07/14 05:29:05;;;;;;;6.82;5.35;;;22.90;67.80;;;;;;4978785;28;20027;-83
2021/07/14 05:31:31;;;;;;;6.38;5.07;;;22.90;67.80;;;;;;4995368;28;20045;-80
2021/07/14 05:33:57;;;;;;;7.93;5.45;;;22.90;67.80;;;;;;4978571;28;20093;-78
2021/07/14 05:36:23;;;;;;;7.63;4.85;;;22.90;67.80;;;;;;4962006;28;20035;-79
2021/07/14 05:38:49;;;;;;;7.47;5.72;;;22.90;67.80;;;;;;4994089;28;20101;-79
2021/07/14 05:41:15;;;;;;;7.07;5.60;;;22.90;67.90;;;;;;4961392;28;20376;-79
2021/07/14 05:43:40;;;;;;;6.75;5.20;;;22.80;67.90;;;;;;4977808;28;20038;-79
2021/07/14 05:46:07;;;;;;;6.22;5.07;;;22.90;67.90;;;;;;4994969;28;20463;-79
2021/07/14 05:48:33;;;;;;;6.90;5.07;;;22.80;67.90;;;;;;4978385;28;20030;-78
2021/07/14 05:50:58;;;;;;;7.50;5.40;;;22.80;68.00;;;;;;4961941;28;20037;-79
2021/07/14 05:53:25;;;;;;;8.35;5.28;;;22.90;68.00;;;;;;4993660;28;20042;-80
2021/07/14 05:55:51;;;;;;;6.45;5.18;;;22.80;67.90;;;;;;4961407;28;20375;-79
2021/07/14 05:58:17;;;;;;;6.57;5.05;;;22.90;68.00;;;;;;4977178;28;20037;-79
2021/07/14 06:00:43;;;;;;;6.80;5.05;;;22.80;67.90;;;;;;4994891;28;20033;-79
2021/07/14 06:03:09;;;;;;;6.78;5.18;;;22.80;67.90;;;;;;4961672;28;20034;-82
2021/07/14 06:05:36;;;;;;;8.23;5.50;;;22.80;68.00;;;;;;4977069;28;20390;-81
2021/07/14 06:08:02;;;;;;;7.30;5.15;;;22.80;68.00;;;;;;4977525;28;20026;-80
2021/07/14 06:10:28;;;;;;;7.00;5.53;;;22.80;68.00;;;;;;4992922;28;20108;-80
2021/07/14 06:12:59;;;;;;;7.90;5.72;;;22.80;68.00;;;;;;4994602;28;20088;-79
2021/07/14 06:15:26;;;;;;;7.22;5.82;;;22.90;68.00;;;;;;4961461;28;20088;-80
2021/07/14 06:17:53;;;;;;;6.88;5.88;;;22.80;68.00;;;;;;4976843;28;20023;-80
2021/07/14 06:20:19;;;;;;;7.45;5.78;;;22.80;68.00;;;;;;4977070;28;20117;-79
2021/07/14 06:22:45;;;;;;;7.47;5.68;;;22.80;68.00;;;;;;4976695;28;20030;-79
2021/07/14 06:25:12;;;;;;;6.32;5.15;;;22.80;68.00;;;;;;4977017;28;20172;-81
2021/07/14 06:27:42;;;;;;;8.82;5.85;;;22.80;68.00;;;;;;4994124;28;20050;-80
2021/07/14 06:30:10;;;;;;;7.07;5.47;;;22.80;68.00;;;;;;4994066;28;20045;-79
2021/07/14 06:32:37;;;;;;;7.43;5.63;;;22.80;68.00;;;;;;4960852;28;20109;-79
2021/07/14 06:35:06;;;;;;;7.97;5.55;;;22.80;68.00;;;;;;4976807;28;20042;-79
2021/07/14 06:37:32;;;;;;;7.07;5.72;;;22.80;68.10;;;;;;4976869;28;20018;-79
2021/07/14 06:39:58;;;;;;;7.18;5.53;;;22.80;68.10;;;;;;4976739;28;20471;-80
2021/07/14 06:42:24;;;;;;;7.43;5.70;;;22.80;68.10;;;;;;4993053;28;20069;-80
2021/07/14 06:44:49;;;;;;;6.97;5.55;;;22.80;68.10;;;;;;4993063;28;20031;-80
2021/07/14 06:47:16;;;;;;;7.18;5.30;;;22.80;68.10;;;;;;4993250;28;20022;-81
2021/07/14 06:49:43;;;;;;;5.93;5.07;;;22.90;68.20;;;;;;4960478;28;20026;-80
2021/07/14 06:52:09;;;;;;;6.30;5.47;;;22.80;68.20;;;;;;4960615;28;20030;-79
2021/07/14 06:54:38;;;;;;;6.88;5.65;;;22.80;68.20;;;;;;4976805;28;20483;-80
2021/07/14 06:57:07;;;;;;;6.72;5.43;;;22.80;68.20;;;;;;4960548;28;20053;-81
2021/07/14 06:59:33;;;;;;;6.30;5.13;;;22.90;68.30;;;;;;4976740;28;20065;-81
2021/07/14 07:02:02;;;;;;;8.05;5.88;;;22.90;68.30;;;;;;4976919;28;20026;-81
2021/07/14 07:04:29;;;;;;;8.05;6.05;;;22.80;68.40;;;;;;4976642;28;20065;-79
2021/07/14 07:06:55;;;;;;;6.97;5.22;;;22.80;68.30;;;;;;4976868;28;20058;-82
2021/07/14 07:09:21;;;;;;;7.20;5.50;;;22.80;68.40;;;;;;4960531;28;20034;-82
2021/07/14 07:11:47;;;;;;;7.50;5.93;;;22.90;68.50;;;;;;4992800;28;20082;-81
2021/07/14 07:14:13;;;;;;;7.50;6.05;;;22.90;68.50;;;;;;4977333;28;20077;-81
2021/07/14 07:16:38;;;;;;;8.00;5.82;;;22.90;68.50;;;;;;4960816;28;20356;-81
2021/07/14 07:19:05;;;;;;;6.82;5.43;;;22.90;68.50;;;;;;4993988;28;20022;-82
2021/07/14 07:21:32;;;;;;;7.03;5.80;;;22.90;68.50;;;;;;4960866;28;20026;-82
2021/07/14 07:23:58;;;;;;;7.18;5.38;;;22.90;68.50;;;;;;4964557;28;20030;-80
2021/07/14 07:26:25;;;;;;;7.93;5.93;;;22.90;68.50;;;;;;4964152;28;20027;-82
2021/07/14 07:28:58;;;;;;;6.55;5.47;;;22.90;68.60;;;;;;4997603;28;20482;-82
2021/07/14 07:31:24;;;;;;;7.05;5.47;;;22.90;68.50;;;;;;4980328;28;20038;-81
2021/07/14 07:33:50;;;;;;;6.93;5.25;;;22.90;68.50;;;;;;4980176;28;20062;-82
2021/07/14 07:36:16;;;;;;;7.82;6.47;;;22.90;68.50;;;;;;4980966;28;20026;-82
2021/07/14 07:38:42;;;;;;;6.55;5.15;;;22.90;68.50;;;;;;4980275;28;20483;-81
2021/07/14 07:41:08;;;;;;;7.90;5.70;;;22.90;68.50;;;;;;4998082;28;20057;-80
2021/07/14 07:43:34;;;;;;;7.13;5.72;;;22.90;68.60;;;;;;4980090;28;20062;-83
2021/07/14 07:46:00;;;;;;;7.03;5.35;;;23.00;68.60;;;;;;4963930;28;20125;-81
2021/07/14 07:48:27;;;;;;;7.32;5.68;;;22.90;68.60;;;;;;4980866;28;20031;-82
2021/07/14 07:50:53;;;;;;;6.35;5.25;;;22.90;68.60;;;;;;4963815;28;20026;-82
2021/07/14 07:53:19;;;;;;;7.07;5.72;;;22.90;68.60;;;;;;4996201;28;20034;-82
2021/07/14 07:55:47;;;;;;;7.18;5.72;;;22.90;68.60;;;;;;4980206;28;20030;-83
2021/07/14 07:58:13;;;;;;;7.30;5.95;;;23.00;69.30;;;;;;4980023;28;20034;-82
2021/07/14 08:00:39;;;;;;;6.32;5.13;;;23.00;68.60;;;;;;4996067;28;20506;-83
2021/07/14 08:03:05;;;;;;;7.65;6.28;;;22.90;68.60;;;;;;4979627;28;20026;-83
2021/07/14 08:05:31;;;;;;;8.23;6.20;;;22.90;68.60;;;;;;4979841;28;20058;-82
2021/07/14 08:07:56;;;;;;;7.00;5.68;;;22.90;68.60;;;;;;4963638;28;20118;-81
2021/07/14 08:10:22;;;;;;;7.80;6.28;;;23.00;68.70;;;;;;4963320;28;20054;-82
2021/07/14 08:12:48;;;;;;;8.70;6.75;;;23.00;68.70;;;;;;4979531;28;20122;-82
2021/07/14 08:15:14;;;;;;;7.93;6.18;;;23.00;68.60;;;;;;4996037;28;20133;-82
2021/07/14 08:17:40;;;;;;;7.72;6.00;;;23.00;68.70;;;;;;4979541;28;20030;-82
2021/07/14 08:20:08;;;;;;;7.75;6.35;;;23.00;68.70;;;;;;4979284;28;20510;-81
2021/07/14 08:22:35;;;;;;;8.38;6.82;;;23.00;68.70;;;;;;4996265;28;20030;-81
2021/07/14 08:25:02;;;;;;;8.43;6.28;;;23.00;68.70;;;;;;4979265;28;20064;-80
2021/07/14 08:27:28;;;;;;;8.70;6.80;;;23.00;68.80;;;;;;4978684;28;20122;-82
2021/07/14 08:29:59;;;;;;;8.52;6.68;;;23.00;68.70;;;;;;4963923;28;20058;-81
2021/07/14 08:32:28;;;;;;;9.30;7.03;;;23.00;68.80;;;;;;4979096;28;20042;-81
2021/07/14 08:34:55;;;;;;;8.73;6.85;;;23.00;68.80;;;;;;4978766;28;20038;-79
2021/07/14 08:37:22;;;;;;;8.77;6.95;;;23.00;68.80;;;;;;4979182;28;20038;-84
2021/07/14 08:39:49;;;;;;;8.02;6.80;;;23.00;68.80;;;;;;4995236;28;20109;-80
2021/07/14 08:42:16;;;;;;;8.93;7.05;;;23.00;68.90;;;;;;4995022;28;20493;-79
2021/07/14 08:44:43;;;;;;;7.60;6.10;;;23.00;68.90;;;;;;4978852;28;20037;-81
2021/07/14 08:47:09;;;;;;;8.63;6.95;;;23.00;68.90;;;;;;4978592;28;20027;-81
2021/07/14 08:49:37;;;;;;;9.02;7.20;;;23.00;68.90;;;;;;4979215;28;20090;-80
2021/07/14 08:52:03;;;;;;;8.25;5.90;;;23.00;68.90;;;;;;4978596;28;20109;-81
2021/07/14 08:54:29;;;;;;;8.40;6.28;;;23.00;68.90;;;;;;4979376;28;20405;-80
2021/07/14 08:56:55;;;;;;;8.50;6.47;;;23.10;68.90;;;;;;4996088;28;20481;-81
2021/07/14 08:59:21;;;;;;;8.30;6.28;;;23.10;68.80;;;;;;4978672;28;20395;-80
2021/07/14 09:01:48;;;;;;;8.15;6.53;;;23.10;68.90;;;;;;4995553;28;20053;-82
2021/07/14 09:04:14;;;;;;;7.50;6.00;;;23.10;68.80;;;;;;4978781;28;20102;-81
2021/07/14 09:06:39;;;;;;;7.35;5.80;;;23.10;68.80;;;;;;4978446;28;20125;-80
2021/07/14 09:09:06;;;;;;;8.00;6.55;;;23.10;68.80;;;;;;4962583;28;20029;-81
2021/07/14 09:11:52;;;;;;;7.20;5.95;;;23.10;68.80;;;;;;4978103;28;20053;-80
2021/07/14 09:14:29;;;;;;;7.97;6.22;;;23.10;68.90;;;;;;4995823;28;20066;-80
2021/07/14 09:16:56;;;;;;;8.00;6.18;;;23.10;68.90;;;;;;4962154;28;20026;-80
2021/07/14 09:19:26;;;;;;;7.60;6.40;;;23.10;68.80;;;;;;4978216;28;20022;-81
2021/07/14 09:21:52;;;;;;;8.02;6.28;;;23.10;68.80;;;;;;4962490;28;20041;-81
2021/07/14 09:24:27;;;;;;;7.70;6.53;;;23.10;68.90;;;;;;4962031;28;20497;-81
2021/07/14 09:26:55;;;;;;;7.38;6.30;;;23.10;69.00;;;;;;4977898;28;20038;-80
2021/07/14 09:29:21;;;;;;;8.00;6.72;;;23.10;68.90;;;;;;4978685;28;20022;-80
2021/07/14 09:31:48;;;;;;;8.00;6.88;;;23.10;69.50;;;;;;4994655;28;20093;-80
2021/07/14 09:34:32;;;;;;;10.00;7.07;;;23.20;69.00;;;;;;4962172;28;20483;-80
2021/07/14 09:36:59;;;;;;;8.55;6.68;;;23.10;69.00;;;;;;4978812;28;20098;-81
2021/07/14 09:39:38;;;;;;;7.22;6.20;;;23.20;68.90;;;;;;4996450;28;20014;-80
2021/07/14 09:42:09;;;;;;;7.78;6.50;;;23.20;69.00;;;;;;4978215;28;20030;-80
2021/07/14 09:44:44;;;;;;;7.78;6.25;;;23.20;68.90;;;;;;4977395;28;20083;-81
2021/07/14 09:47:18;;;;;;;7.43;6.13;;;23.20;69.00;;;;;;4977832;28;20459;-80
2021/07/14 09:49:45;;;;;;;7.97;6.25;;;23.20;69.00;;;;;;4962359;28;20033;-81
2021/07/14 09:52:14;;;;;;;9.18;6.75;;;23.20;68.90;;;;;;4978488;28;20053;-80
2021/07/14 09:54:41;;;;;;;8.77;6.90;;;23.20;68.90;;;;;;4995916;28;20030;-81
2021/07/14 09:57:14;;;;;;;8.88;6.90;;;23.20;68.80;;;;;;4977496;28;20022;-81
2021/07/14 09:59:41;;;;;;;7.15;5.85;;;23.20;68.90;;;;;;4977741;28;20027;-81
2021/07/14 10:02:11;;;;;;;9.27;7.40;;;23.20;68.80;;;;;;4977181;28;20042;-80
2021/07/14 10:04:37;;;;;;;8.23;6.45;;;23.20;68.90;;;;;;4977328;28;20038;-81
2021/07/14 10:07:07;;;;;;;7.43;6.22;;;23.20;68.80;;;;;;4994739;28;20041;-81
2021/07/14 10:09:34;;;;;;;9.05;7.13;;;23.20;68.90;;;;;;4977381;28;20471;-80
2021/07/14 10:12:31;;;;;;;8.68;6.95;;;23.20;68.80;;;;;;4960966;28;20069;-80
2021/07/14 10:15:20;;;;;;;8.15;6.78;;;23.20;69.00;;;;;;4994445;28;20050;-80
2021/07/14 10:17:49;;;;;;;8.88;6.75;;;23.20;68.80;;;;;;4977158;28;20066;-80
2021/07/14 10:20:31;;;;;;;8.90;6.93;;;23.20;68.80;;;;;;4994772;28;20375;-79
2021/07/14 10:23:06;;;;;;;7.75;6.72;;;23.30;69.00;;;;;;4977840;28;20055;-79
2021/07/14 10:25:34;;;;;;;9.07;7.63;;;23.30;69.00;;;;;;4994408;28;20041;-80
2021/07/14 10:28:01;;;;;;;9.18;6.88;;;23.30;68.90;;;;;;4977067;28;20057;-79
2021/07/14 10:30:28;;;;;;;7.82;6.25;;;23.30;68.90;;;;;;4977075;28;20034;-80
2021/07/14 10:32:55;;;;;;;9.88;7.53;;;23.30;68.90;;;;;;4976977;28;20034;-82
2021/07/14 10:35:26;;;;;;;9.32;7.57;;;23.30;68.90;;;;;;4977008;28;20105;-81
2021/07/14 10:37:54;;;;;;;8.88;7.35;;;23.30;68.90;;;;;;4976702;28;20362;-80
2021/07/14 10:40:22;;;;;;;9.52;7.18;;;23.30;68.80;;;;;;4976873;28;20026;-81
2021/07/14 10:42:49;;;;;;;9.30;7.40;;;23.30;68.80;;;;;;4976909;28;20101;-80
2021/07/14 10:45:16;;;;;;;8.25;6.78;;;23.30;68.80;;;;;;4960561;28;20481;-81
2021/07/14 10:47:47;;;;;;;10.23;7.22;;;23.40;68.80;;;;;;4960702;28;20122;-80
2021/07/14 10:50:15;;;;;;;9.65;7.78;;;23.30;68.80;;;;;;4976955;28;20027;-80
2021/07/14 10:52:41;;;;;;;8.65;7.15;;;23.40;68.80;;;;;;4994501;28;20022;-80
2021/07/14 10:55:12;;;;;;;8.80;7.57;;;23.40;68.70;;;;;;4960663;28;20467;-79
2021/07/14 10:57:39;;;;;;;9.02;7.18;;;23.30;68.70;;;;;;4981538;28;20109;-80
2021/07/14 11:00:08;;;;;;;9.15;7.30;;;23.30;68.70;;;;;;4964854;28;20039;-80
2021/07/14 11:02:41;;;;;;;9.90;7.82;;;23.40;68.80;;;;;;4964573;28;20379;-80
2021/07/14 11:05:09;;;;;;;10.73;7.53;;;23.40;68.80;;;;;;4980648;28;20031;-80
2021/07/14 11:07:40;;;;;;;9.68;7.80;;;23.40;68.80;;;;;;4996922;28;20394;-80
2021/07/14 11:10:39;;;;;;;9.73;8.02;;;23.40;68.80;;;;;;4998196;28;20026;-81
2021/07/14 11:13:31;;;;;;;10.75;8.00;;;23.40;69.00;;;;;;4975640;28;20057;-81
2021/07/14 11:16:07;;;;;;;9.32;7.00;;;23.40;69.00;;;;;;4964567;28;20089;-79
2021/07/14 11:18:35;;;;;;;8.95;6.53;;;23.40;68.80;;;;;;4997833;28;20105;-80
2021/07/14 11:21:01;;;;;;;9.75;7.65;;;23.40;68.80;;;;;;4980477;28;20057;-79
2021/07/14 11:23:28;;;;;;;10.77;7.97;;;23.40;68.90;;;;;;4980564;28;20073;-79
2021/07/14 11:25:56;;;;;;;8.82;7.38;;;23.40;68.90;;;;;;4964262;28;20546;-78
2021/07/14 11:28:26;;;;;;;9.82;7.53;;;23.40;69.00;;;;;;4996678;28;20034;-80
2021/07/14 11:30:54;;;;;;;9.60;7.38;;;23.40;69.00;;;;;;4964960;28;20041;-79
2021/07/14 11:33:24;;;;;;;7.78;6.75;;;23.40;68.90;;;;;;4997649;28;20034;-80
2021/07/14 11:36:01;;;;;;;8.95;7.53;;;23.40;68.90;;;;;;4997449;28;20081;-81
2021/07/14 11:38:40;;;;;;;10.00;7.28;;;23.40;69.00;;;;;;4979676;28;20034;-79
2021/07/14 11:41:23;;;;;;;10.52;8.23;;;23.50;69.00;;;;;;4964623;28;20034;-80
2021/07/14 11:43:52;;;;;;;9.90;7.40;;;23.50;69.10;;;;;;4980772;28;20038;-79
2021/07/14 11:46:23;;;;;;;8.88;7.13;;;23.50;69.00;;;;;;4996894;28;20352;-79
2021/07/14 11:49:00;;;;;;;9.02;7.10;;;23.50;69.10;;;;;;4963741;28;20034;-78
2021/07/14 11:51:26;;;;;;;10.82;7.60;;;23.50;69.20;;;;;;4995885;28;20081;-79
2021/07/14 11:53:58;;;;;;;9.15;6.80;;;23.50;69.00;;;;;;4997785;28;20037;-80
2021/07/14 11:56:38;;;;;;;10.18;7.80;;;23.50;69.10;;;;;;4963998;28;20041;-79
2021/07/14 11:59:13;;;;;;;9.35;6.97;;;23.50;69.10;;;;;;4995986;28;20038;-80
2021/07/14 12:01:38;;;;;;;9.32;6.85;;;23.50;69.10;;;;;;4963722;28;20491;-81
2021/07/14 12:04:05;;;;;;;9.63;7.45;;;23.50;69.00;;;;;;4996152;28;20058;-80
2021/07/14 12:06:34;;;;;;;10.05;7.32;;;23.50;69.00;;;;;;4996780;28;20498;-80
2021/07/14 12:09:15;;;;;;;10.38;7.85;;;23.50;69.00;;;;;;4996620;28;20034;-83
2021/07/14 12:11:46;;;;;;;9.43;7.32;;;23.50;69.10;;;;;;4979501;28;20057;-82
2021/07/14 12:14:17;;;;;;;9.80;7.25;;;23.50;69.00;;;;;;4996266;28;20035;-82
2021/07/14 12:16:59;;;;;;;9.50;7.20;;;23.50;69.00;;;;;;4981300;28;20085;-82
2021/07/14 12:19:55;;;;;;;10.80;7.85;;;23.50;69.00;;;;;;4973832;28;20042;-82
2021/07/14 12:22:24;;;;;;;8.70;6.60;;;23.50;69.00;;;;;;4986891;28;20038;-82
2021/07/14 12:24:56;;;;;;;9.10;7.10;;;23.50;68.90;;;;;;4987746;28;20034;-83
2021/07/14 12:27:39;;;;;;;9.38;7.15;;;23.50;69.00;;;;;;5002084;28;20054;-83
2021/07/14 12:30:15;;;;;;;8.73;6.97;;;23.60;69.10;;;;;;4967258;28;20026;-82
2021/07/14 12:33:07;;;;;;;;;;;;;;;;;;;;;
2021/07/14 12:36:18;;;;;;;8.18;6.25;;;23.50;69.00;;;;;;4991134;28;20050;-83
2021/07/14 12:38:55;;;;;;;9.90;6.65;;;23.60;69.00;;;;;;4963334;28;20027;-82
2021/07/14 12:41:29;;;;;;;8.88;6.80;;;23.60;69.00;;;;;;4995770;28;20073;-81
2021/07/14 12:44:06;;;;;;;9.88;7.18;;;23.60;68.90;;;;;;4979242;28;20034;-83
2021/07/14 12:46:32;;;;;;;9.10;7.00;;;23.60;69.00;;;;;;4996093;28;20038;-82
2021/07/14 12:49:12;;;;;;;9.00;6.40;;;23.60;68.90;;;;;;4997012;28;20022;-82
2021/07/14 12:51:38;;;;;;;7.28;6.30;;;23.60;69.10;;;;;;4995959;28;20042;-81
2021/07/14 12:54:03;;;;;;;8.10;6.63;;;23.60;68.80;;;;;;4978188;28;20027;-82
2021/07/14 12:56:29;;;;;;;9.85;7.07;;;23.70;68.90;;;;;;4962962;28;20463;-81
2021/07/14 12:59:04;;;;;;;9.32;7.30;;;23.70;68.90;;;;;;4978738;28;20117;-83
2021/07/14 13:01:33;;;;;;;8.30;6.82;;;23.70;69.00;;;;;;4978897;28;20430;-82
2021/07/14 13:03:59;;;;;;;8.85;6.05;;;23.70;68.90;;;;;;4962779;28;20031;-82
2021/07/14 13:06:27;;;;;;;8.23;6.43;;;23.70;68.80;;;;;;4978825;28;20041;-83